Time;durP1;ratioP1;P1;durP2;ratioP2;P2;SDS_P1;SDS_P2;PMS_P1;PMS_P2;Temp;Humidity;BMP_temperature;BMP_pressure;BME280_temperature;BME280_humidity;BME280_pressure;Samples;Min_cycle;Max_cycle;Signal;HPM_P1;HPM_P2
2021/12/03 00:00:50;;;;;;;1.08;1.08;;;4.40;99.90;;;;;;5278593;28;20065;-74
2021/12/03 00:03:21;;;;;;;0.85;0.85;;;4.40;99.90;;;;;;5263375;28;20213;-74
2021/12/03 00:05:55;;;;;;;0.65;0.65;;;4.40;99.90;;;;;;5272101;28;20059;-73
2021/12/03 00:08:27;;;;;;;0.70;0.70;;;4.40;99.90;;;;;;5274933;28;20245;-75
2021/12/03 00:11:00;;;;;;;0.60;0.60;;;4.40;99.90;;;;;;5246702;28;20329;-75
2021/12/03 00:13:36;;;;;;;0.80;0.80;;;4.40;99.90;;;;;;5273228;28;20035;-75
2021/12/03 00:16:10;;;;;;;0.50;0.50;;;4.40;99.90;;;;;;5259290;28;20027;-74
2021/12/03 00:18:41;;;;;;;0.40;0.40;;;4.30;99.90;;;;;;5259395;28;20309;-74
2021/12/03 00:21:15;;;;;;;0.80;0.80;;;4.40;99.90;;;;;;5263475;28;20035;-75
2021/12/03 00:23:46;;;;;;;0.73;0.73;;;4.40;99.90;;;;;;5264841;28;20032;-74
2021/12/03 00:26:17;;;;;;;0.40;0.40;;;4.40;99.90;;;;;;5263026;28;20448;-74
2021/12/03 00:28:50;;;;;;;0.50;0.50;;;4.30;99.90;;;;;;5262468;28;20032;-74
2021/12/03 00:31:24;;;;;;;0.47;0.47;;;4.30;99.90;;;;;;5276928;28;20244;-74
2021/12/03 00:33:54;;;;;;;0.80;0.80;;;4.30;99.90;;;;;;5246310;28;20330;-74
2021/12/03 00:36:28;;;;;;;1.67;1.58;;;4.30;99.90;;;;;;5246362;28;20287;-74
2021/12/03 00:39:05;;;;;;;1.50;1.50;;;4.30;99.90;;;;;;5263805;28;20096;-74
2021/12/03 00:41:45;;;;;;;0.70;0.70;;;4.30;99.90;;;;;;5271470;27;20035;-76
2021/12/03 00:44:19;;;;;;;0.80;0.80;;;4.30;99.90;;;;;;5285563;28;20034;-76
2021/12/03 00:46:50;;;;;;;1.17;1.17;;;4.20;99.90;;;;;;5260985;28;20031;-76
2021/12/03 00:49:22;;;;;;;0.50;0.50;;;4.20;99.90;;;;;;5289406;27;20102;-76
2021/12/03 00:51:53;;;;;;;0.70;0.70;;;4.20;99.90;;;;;;5310424;27;20091;-74
2021/12/03 00:54:25;;;;;;;0.80;0.80;;;4.10;99.90;;;;;;5287741;27;20039;-75
2021/12/03 00:56:56;;;;;;;0.63;0.63;;;4.10;99.90;;;;;;5291535;28;20181;-75
2021/12/03 00:59:27;;;;;;;1.55;1.48;;;4.10;99.90;;;;;;5271527;28;20039;-75
2021/12/03 01:01:58;;;;;;;0.65;0.65;;;4.10;99.90;;;;;;5310584;27;20258;-75
2021/12/03 01:04:32;;;;;;;0.60;0.60;;;4.10;99.90;;;;;;5297613;27;20042;-75
2021/12/03 01:07:06;;;;;;;0.73;0.73;;;4.10;99.90;;;;;;5291940;27;20091;-75
2021/12/03 01:09:37;;;;;;;0.50;0.50;;;4.10;99.90;;;;;;5302399;27;20037;-75
2021/12/03 01:12:09;;;;;;;0.40;0.40;;;4.10;99.90;;;;;;5267471;27;20023;-75
2021/12/03 01:14:43;;;;;;;0.40;0.40;;;4.10;99.90;;;;;;5271939;27;20039;-75
2021/12/03 01:17:14;;;;;;;0.73;0.73;;;4.10;99.90;;;;;;5291811;27;20023;-75
2021/12/03 01:19:45;;;;;;;0.80;0.80;;;4.10;99.90;;;;;;5270797;27;20035;-74
2021/12/03 01:22:18;;;;;;;0.40;0.40;;;4.10;99.90;;;;;;5291515;27;20410;-75
2021/12/03 01:24:50;;;;;;;0.50;0.50;;;4.10;99.90;;;;;;5286701;28;20036;-75
2021/12/03 01:27:23;;;;;;;0.50;0.50;;;4.10;99.90;;;;;;5290417;27;20057;-74
2021/12/03 01:29:55;;;;;;;0.70;0.70;;;4.20;99.90;;;;;;5289551;27;20039;-74
2021/12/03 01:32:26;;;;;;;0.70;0.70;;;4.20;99.90;;;;;;5291436;27;20050;-74
2021/12/03 01:34:57;;;;;;;0.50;0.50;;;4.20;99.90;;;;;;5309895;27;20027;-75
2021/12/03 01:37:28;;;;;;;0.60;0.60;;;4.20;99.90;;;;;;5292075;27;20075;-74
2021/12/03 01:40:01;;;;;;;0.90;0.90;;;4.20;99.90;;;;;;5287568;28;20039;-74
2021/12/03 01:42:32;;;;;;;0.50;0.50;;;4.20;99.90;;;;;;5286778;27;20031;-74
2021/12/03 01:45:05;;;;;;;0.52;0.52;;;4.20;99.90;;;;;;5269222;28;20221;-76
2021/12/03 01:47:42;;;;;;;0.40;0.40;;;4.20;99.90;;;;;;5285304;28;20073;-76
2021/12/03 01:50:15;;;;;;;0.60;0.60;;;4.10;99.90;;;;;;5268906;28;20481;-74
2021/12/03 01:52:49;;;;;;;0.60;0.60;;;4.20;99.90;;;;;;5287922;28;20027;-74
2021/12/03 01:55:20;;;;;;;0.75;0.75;;;4.20;99.90;;;;;;5286556;28;20031;-74
2021/12/03 01:57:52;;;;;;;0.60;0.60;;;4.10;99.90;;;;;;5286270;28;20092;-74
2021/12/03 02:00:29;;;;;;;0.52;0.52;;;4.20;99.90;;;;;;5285698;28;20453;-74
2021/12/03 02:03:06;;;;;;;0.70;0.70;;;4.10;99.90;;;;;;5287195;28;20024;-76
2021/12/03 02:05:38;;;;;;;0.57;0.57;;;4.10;99.90;;;;;;5286489;28;20039;-74
2021/12/03 02:08:13;;;;;;;0.40;0.40;;;4.10;99.90;;;;;;5281841;28;20052;-75
2021/12/03 02:10:45;;;;;;;0.55;0.55;;;4.10;99.90;;;;;;5265488;28;20149;-75
2021/12/03 02:13:18;;;;;;;0.80;0.80;;;4.20;99.90;;;;;;5285533;28;20038;-75
2021/12/03 02:15:50;;;;;;;0.70;0.70;;;4.20;99.90;;;;;;5263956;28;20249;-74
2021/12/03 02:18:21;;;;;;;0.75;0.75;;;4.10;99.90;;;;;;5270993;28;20042;-74
2021/12/03 02:20:56;;;;;;;0.93;0.93;;;3.90;99.90;;;;;;5248278;28;20331;-73
2021/12/03 02:23:29;;;;;;;0.80;0.80;;;3.80;99.90;;;;;;5266214;28;20036;-74
2021/12/03 02:26:00;;;;;;;0.85;0.85;;;3.70;99.90;;;;;;5256324;28;20036;-74
2021/12/03 02:28:38;;;;;;;0.68;0.68;;;3.60;99.90;;;;;;5247971;28;20360;-75
2021/12/03 02:31:14;;;;;;;0.55;0.55;;;3.40;99.90;;;;;;5264254;28;20031;-74
2021/12/03 02:33:46;;;;;;;0.60;0.60;;;3.20;99.90;;;;;;5250705;28;20550;-76
2021/12/03 02:36:19;;;;;;;0.50;0.50;;;3.10;99.90;;;;;;5286220;28;20137;-74
2021/12/03 02:38:50;;;;;;;0.40;0.40;;;3.00;99.90;;;;;;5284639;28;20067;-75
2021/12/03 02:41:24;;;;;;;0.50;0.50;;;3.00;99.90;;;;;;5306721;27;20034;-75
2021/12/03 02:43:57;;;;;;;0.80;0.80;;;3.00;99.90;;;;;;5272693;27;20044;-74
2021/12/03 02:46:28;;;;;;;0.70;0.70;;;3.00;99.90;;;;;;5310972;27;20023;-75
2021/12/03 02:48:59;;;;;;;0.47;0.47;;;3.00;99.90;;;;;;5293424;27;20432;-74
2021/12/03 02:51:30;;;;;;;0.68;0.68;;;3.00;99.90;;;;;;5288399;27;20066;-75
2021/12/03 02:54:01;;;;;;;0.95;0.95;;;3.00;99.90;;;;;;5268696;28;20038;-75
2021/12/03 02:56:35;;;;;;;0.40;0.40;;;3.10;99.90;;;;;;5269374;27;20038;-74
2021/12/03 02:59:06;;;;;;;0.60;0.60;;;3.10;99.90;;;;;;5307119;27;20337;-74
2021/12/03 03:01:37;;;;;;;0.40;0.40;;;3.10;99.90;;;;;;5307051;27;20331;-74
2021/12/03 03:04:08;;;;;;;0.40;0.40;;;3.20;99.90;;;;;;5289273;27;20038;-74
2021/12/03 03:06:42;;;;;;;0.60;0.60;;;3.20;99.90;;;;;;5289016;27;20038;-75
2021/12/03 03:09:14;;;;;;;0.60;0.60;;;3.20;99.90;;;;;;5286864;27;20088;-76
2021/12/03 03:11:47;;;;;;;0.60;0.60;;;3.20;99.90;;;;;;5289636;27;20031;-76
2021/12/03 03:14:20;;;;;;;0.50;0.50;;;3.20;99.90;;;;;;5306867;27;20031;-76
2021/12/03 03:16:53;;;;;;;0.40;0.40;;;3.20;99.90;;;;;;5289554;27;20039;-76
2021/12/03 03:19:27;;;;;;;0.40;0.40;;;3.20;99.90;;;;;;5273953;27;20051;-75
2021/12/03 03:21:58;;;;;;;0.50;0.50;;;3.20;99.90;;;;;;5307172;27;20357;-74
2021/12/03 03:24:30;;;;;;;0.95;0.95;;;3.20;99.90;;;;;;5288509;27;20031;-74
2021/12/03 03:27:03;;;;;;;0.40;0.40;;;3.20;99.90;;;;;;5287739;27;20026;-74
2021/12/03 03:29:34;;;;;;;0.60;0.60;;;3.20;99.90;;;;;;5306975;27;20102;-75
2021/12/03 03:32:08;;;;;;;1.65;1.55;;;3.20;99.90;;;;;;5272010;27;20035;-74
2021/12/03 03:34:39;;;;;;;0.80;0.80;;;3.30;99.90;;;;;;5290016;27;20034;-74
2021/12/03 03:37:13;;;;;;;0.43;0.43;;;3.30;99.90;;;;;;5310423;27;20393;-74
2021/12/03 03:39:45;;;;;;;0.57;0.57;;;3.30;99.90;;;;;;5285101;27;20188;-74
2021/12/03 03:42:16;;;;;;;0.65;0.65;;;3.30;99.90;;;;;;5306285;27;20388;-74
2021/12/03 03:44:49;;;;;;;0.40;0.40;;;3.30;99.90;;;;;;5271752;27;20038;-74
2021/12/03 03:47:20;;;;;;;0.80;0.80;;;3.30;99.90;;;;;;5269546;27;20065;-75
2021/12/03 03:49:51;;;;;;;0.63;0.63;;;3.30;99.90;;;;;;5287800;27;20031;-75
2021/12/03 03:52:22;;;;;;;0.50;0.50;;;3.30;99.90;;;;;;5306318;27;20312;-75
2021/12/03 03:54:56;;;;;;;0.50;0.50;;;3.20;99.90;;;;;;5288329;27;20094;-75
2021/12/03 03:57:27;;;;;;;0.40;0.40;;;3.20;99.90;;;;;;5286942;27;20761;-75
2021/12/03 04:00:01;;;;;;;0.80;0.80;;;3.20;99.90;;;;;;5289251;27;20031;-76
2021/12/03 04:02:34;;;;;;;0.60;0.60;;;3.10;99.90;;;;;;5289098;27;20098;-75
2021/12/03 04:05:07;;;;;;;1.00;1.00;;;3.10;99.90;;;;;;5306348;27;20027;-74
2021/12/03 04:07:39;;;;;;;0.80;0.80;;;3.10;99.90;;;;;;5287211;27;20121;-74
2021/12/03 04:10:11;;;;;;;0.50;0.50;;;3.00;99.90;;;;;;5306448;27;20082;-74
2021/12/03 04:12:45;;;;;;;1.02;1.02;;;3.00;99.90;;;;;;5287790;27;20102;-74
2021/12/03 04:15:16;;;;;;;1.45;1.00;;;3.00;99.90;;;;;;5287502;27;20067;-74
2021/12/03 04:17:50;;;;;;;0.68;0.68;;;3.00;99.90;;;;;;5285714;27;20026;-74
2021/12/03 04:20:23;;;;;;;0.50;0.50;;;3.00;99.90;;;;;;5305131;27;20030;-74
2021/12/03 04:22:54;;;;;;;0.57;0.57;;;2.90;99.90;;;;;;5305664;27;20027;-74
2021/12/03 04:25:28;;;;;;;6.43;2.30;;;2.90;99.90;;;;;;5286942;27;20034;-75
2021/12/03 04:28:01;;;;;;;0.57;0.57;;;2.90;99.90;;;;;;5277882;28;20191;-75
2021/12/03 04:30:33;;;;;;;0.40;0.40;;;2.90;99.90;;;;;;5266136;28;20038;-75
2021/12/03 04:33:06;;;;;;;0.70;0.70;;;2.90;99.90;;;;;;5265440;28;20043;-74
2021/12/03 04:35:39;;;;;;;0.82;0.82;;;2.80;99.90;;;;;;5273263;27;20019;-75
2021/12/03 04:38:12;;;;;;;0.60;0.60;;;2.70;99.90;;;;;;5284443;27;20046;-74
2021/12/03 04:40:46;;;;;;;0.60;0.60;;;2.70;99.90;;;;;;5270127;27;20283;-76
2021/12/03 04:43:20;;;;;;;0.60;0.60;;;2.60;99.90;;;;;;5305373;27;20083;-74
2021/12/03 04:45:50;;;;;;;0.60;0.60;;;2.60;99.90;;;;;;5291880;28;20099;-74
2021/12/03 04:48:21;;;;;;;0.50;0.50;;;2.60;99.90;;;;;;5277031;28;20351;-74
2021/12/03 04:50:55;;;;;;;0.40;0.40;;;2.60;99.90;;;;;;5305200;28;20027;-75
2021/12/03 04:53:31;;;;;;;0.30;0.30;;;2.60;99.90;;;;;;5265694;28;20050;-74
2021/12/03 04:56:04;;;;;;;0.50;0.50;;;2.50;99.90;;;;;;5283365;28;20027;-75
2021/12/03 04:58:37;;;;;;;0.80;0.80;;;2.50;99.90;;;;;;5290294;28;20399;-75
2021/12/03 05:01:08;;;;;;;0.40;0.40;;;2.50;99.90;;;;;;5305673;27;20056;-75
2021/12/03 05:03:39;;;;;;;0.50;0.50;;;2.50;99.90;;;;;;5271312;27;20035;-77
2021/12/03 05:06:28;;;;;;;0.40;0.40;;;2.40;99.90;;;;;;5303281;28;20420;-75
2021/12/03 05:09:02;;;;;;;0.30;0.30;;;2.40;99.90;;;;;;5286660;28;20209;-74
2021/12/03 05:11:38;;;;;;;0.88;0.88;;;2.40;99.90;;;;;;5285200;28;20059;-74
2021/12/03 05:14:16;;;;;;;0.40;0.40;;;2.40;99.90;;;;;;5304563;28;20023;-77
2021/12/03 05:16:48;;;;;;;0.35;0.35;;;2.40;99.90;;;;;;5286884;28;20202;-74
2021/12/03 05:19:26;;;;;;;0.70;0.70;;;2.40;99.90;;;;;;5274154;28;20076;-75
2021/12/03 05:21:57;;;;;;;0.50;0.50;;;2.30;99.90;;;;;;5286266;28;20051;-75
2021/12/03 05:24:31;;;;;;;1.02;1.02;;;2.30;99.90;;;;;;5304047;28;20049;-75
2021/12/03 05:27:09;;;;;;;0.60;0.60;;;2.30;99.90;;;;;;5303433;27;20037;-75
2021/12/03 05:29:43;;;;;;;0.57;0.57;;;2.30;99.90;;;;;;5287472;28;20038;-74
2021/12/03 05:32:18;;;;;;;0.50;0.50;;;2.30;99.90;;;;;;5302440;28;20023;-74
2021/12/03 05:34:52;;;;;;;0.45;0.45;;;2.30;99.90;;;;;;5285402;28;20307;-75
2021/12/03 05:37:26;;;;;;;0.50;0.50;;;2.30;99.90;;;;;;5281287;28;20094;-75
2021/12/03 05:40:00;;;;;;;0.52;0.52;;;2.30;99.90;;;;;;5283149;28;20344;-76
2021/12/03 05:42:33;;;;;;;;;;;2.30;99.90;;;;;;5283725;28;20539;-74
2021/12/03 05:45:29;;;;;;;0.50;0.50;;;2.30;99.90;;;;;;5281397;28;20268;-74
2021/12/03 05:48:02;;;;;;;0.60;0.60;;;2.30;99.90;;;;;;5278046;28;20032;-74
2021/12/03 05:50:36;;;;;;;0.50;0.50;;;2.30;99.90;;;;;;5249690;28;20069;-77
2021/12/03 05:53:07;;;;;;;0.50;0.50;;;2.40;99.90;;;;;;5265204;28;20267;-76
2021/12/03 05:55:43;;;;;;;0.77;0.77;;;2.30;99.90;;;;;;5264462;28;20020;-76
2021/12/03 05:58:18;;;;;;;0.40;0.40;;;2.30;99.90;;;;;;5265154;28;20039;-74
2021/12/03 06:00:48;;;;;;;;;;;2.30;99.90;;;;;;5266094;28;20032;-75
2021/12/03 06:03:19;;;;;;;0.73;0.73;;;2.30;99.90;;;;;;5275352;28;20220;-75
2021/12/03 06:05:55;;;;;;;0.50;0.50;;;2.30;99.90;;;;;;5268366;28;20031;-75
2021/12/03 06:08:25;;;;;;;3.60;1.92;;;2.40;99.90;;;;;;5285243;27;20035;-75
2021/12/03 06:10:56;;;;;;;0.50;0.50;;;2.30;99.90;;;;;;5285781;28;20365;-75
2021/12/03 06:13:30;;;;;;;0.40;0.40;;;2.40;99.90;;;;;;5284619;28;20036;-75
2021/12/03 06:16:01;;;;;;;1.02;1.02;;;2.40;99.90;;;;;;5267490;28;20318;-74
2021/12/03 06:18:38;;;;;;;0.73;0.73;;;2.50;99.90;;;;;;5286329;28;20033;-74
2021/12/03 06:21:11;;;;;;;0.35;0.35;;;2.50;99.90;;;;;;5285410;28;20344;-74
2021/12/03 06:23:42;;;;;;;0.43;0.43;;;2.50;99.90;;;;;;5283969;28;20027;-75
2021/12/03 06:26:16;;;;;;;0.50;0.50;;;2.60;99.90;;;;;;5285320;28;20453;-75
2021/12/03 06:28:47;;;;;;;0.50;0.50;;;2.60;99.90;;;;;;5286621;28;20091;-75
2021/12/03 06:31:18;;;;;;;0.65;0.65;;;2.60;99.90;;;;;;5278887;28;20034;-76
2021/12/03 06:33:54;;;;;;;0.50;0.50;;;2.60;99.90;;;;;;5265860;28;20357;-76
2021/12/03 06:36:25;;;;;;;0.40;0.40;;;2.70;99.90;;;;;;5281341;27;20020;-77
2021/12/03 06:38:59;;;;;;;0.52;0.52;;;2.70;99.90;;;;;;5288219;27;20039;-74
2021/12/03 06:41:32;;;;;;;0.60;0.60;;;2.70;99.90;;;;;;5246125;28;20537;-75
2021/12/03 06:44:08;;;;;;;0.60;0.60;;;2.70;99.90;;;;;;5282572;28;20073;-75
2021/12/03 06:46:39;;;;;;;0.43;0.43;;;2.80;99.90;;;;;;5270071;28;20071;-74
2021/12/03 06:49:10;;;;;;;1.08;1.08;;;2.80;99.90;;;;;;5276893;27;20094;-77
2021/12/03 06:51:45;;;;;;;0.50;0.50;;;2.80;99.90;;;;;;5291564;27;20500;-74
2021/12/03 06:54:24;;;;;;;0.35;0.35;;;2.80;99.90;;;;;;5268813;27;20449;-75
2021/12/03 06:56:58;;;;;;;0.50;0.50;;;2.80;99.90;;;;;;5267621;28;20039;-75
2021/12/03 06:59:32;;;;;;;0.50;0.50;;;2.80;99.90;;;;;;5247745;28;20023;-75
2021/12/03 07:02:04;;;;;;;0.73;0.73;;;2.70;99.90;;;;;;5273742;28;20095;-76
2021/12/03 07:04:35;;;;;;;0.60;0.60;;;2.70;99.90;;;;;;5288728;27;20027;-77
2021/12/03 07:07:08;;;;;;;0.50;0.50;;;2.70;99.90;;;;;;5295022;27;20034;-75
2021/12/03 07:09:39;;;;;;;0.60;0.60;;;2.70;99.90;;;;;;5284460;28;20054;-77
2021/12/03 07:12:13;;;;;;;0.77;0.77;;;2.80;99.90;;;;;;5283561;28;20406;-76
2021/12/03 07:14:46;;;;;;;0.60;0.60;;;2.80;99.90;;;;;;5262732;28;20107;-77
2021/12/03 07:17:20;;;;;;;0.50;0.50;;;2.80;99.90;;;;;;5250084;28;20042;-76
2021/12/03 07:19:55;;;;;;;0.60;0.60;;;2.90;99.90;;;;;;5286235;27;20284;-76
2021/12/03 07:22:28;;;;;;;0.50;0.50;;;2.90;99.90;;;;;;5289599;27;20035;-76
2021/12/03 07:24:59;;;;;;;0.70;0.70;;;2.90;99.90;;;;;;5300459;27;20051;-76
2021/12/03 07:27:34;;;;;;;0.50;0.50;;;2.90;99.90;;;;;;5288445;27;20239;-76
2021/12/03 07:30:07;;;;;;;0.60;0.60;;;2.90;99.90;;;;;;5279304;27;20020;-74
2021/12/03 07:32:41;;;;;;;0.80;0.80;;;2.90;99.90;;;;;;5297482;27;20106;-74
2021/12/03 07:35:13;;;;;;;0.93;0.93;;;2.90;99.90;;;;;;5251142;28;20539;-74
2021/12/03 07:37:46;;;;;;;0.40;0.40;;;2.90;99.90;;;;;;5275181;27;20229;-75
2021/12/03 07:40:18;;;;;;;0.50;0.50;;;2.90;99.90;;;;;;5288594;27;20106;-76
2021/12/03 07:42:51;;;;;;;0.50;0.50;;;2.90;99.90;;;;;;5282382;27;20035;-74
2021/12/03 07:45:25;;;;;;;0.68;0.68;;;2.90;99.90;;;;;;5283060;27;20514;-75
2021/12/03 07:47:56;;;;;;;0.50;0.50;;;2.90;99.90;;;;;;5273906;28;20095;-74
2021/12/03 07:50:34;;;;;;;0.30;0.30;;;2.90;99.90;;;;;;5294935;27;20027;-74
2021/12/03 07:53:13;;;;;;;0.38;0.38;;;3.00;99.90;;;;;;5261177;28;20071;-74
2021/12/03 07:55:47;;;;;;;0.88;0.88;;;3.00;99.90;;;;;;5274074;28;20016;-73
2021/12/03 07:58:19;;;;;;;0.60;0.60;;;3.00;99.90;;;;;;5283441;27;20023;-74
2021/12/03 08:00:50;;;;;;;0.50;0.50;;;3.10;99.90;;;;;;5286321;27;20063;-74
2021/12/03 08:03:29;;;;;;;0.50;0.50;;;3.10;99.90;;;;;;5273026;28;20353;-75
2021/12/03 08:06:07;;;;;;;0.60;0.60;;;3.10;99.90;;;;;;5262655;28;20264;-76
2021/12/03 08:08:41;;;;;;;0.65;0.65;;;3.10;99.90;;;;;;5262173;28;20374;-76
2021/12/03 08:11:12;;;;;;;0.60;0.60;;;3.10;99.90;;;;;;5263242;28;20545;-76
2021/12/03 08:13:45;;;;;;;0.57;0.57;;;3.10;99.90;;;;;;5273988;28;20036;-75
2021/12/03 08:16:16;;;;;;;0.40;0.40;;;3.10;99.90;;;;;;5299960;27;20165;-76
2021/12/03 08:18:46;;;;;;;0.60;0.60;;;3.20;99.90;;;;;;5279376;28;20079;-75
2021/12/03 08:21:17;;;;;;;0.60;0.60;;;3.30;99.90;;;;;;5278669;28;20195;-76
2021/12/03 08:23:49;;;;;;;0.50;0.50;;;3.20;99.90;;;;;;5295900;27;20028;-75
2021/12/03 08:26:22;;;;;;;0.50;0.50;;;3.20;99.90;;;;;;5262013;27;20046;-74
2021/12/03 08:28:55;;;;;;;0.52;0.52;;;3.20;99.90;;;;;;5280690;28;20520;-75
2021/12/03 08:31:27;;;;;;;0.60;0.60;;;3.10;99.90;;;;;;5283816;28;20039;-75
2021/12/03 08:34:03;;;;;;;0.40;0.40;;;3.20;99.90;;;;;;5271776;28;20090;-74
2021/12/03 08:36:34;;;;;;;0.50;0.50;;;3.30;99.90;;;;;;5294292;27;20102;-74
2021/12/03 08:39:09;;;;;;;0.77;0.77;;;3.30;99.90;;;;;;5284482;27;20031;-76
2021/12/03 08:41:40;;;;;;;;;;;3.30;99.90;;;;;;5304496;27;20438;-75
2021/12/03 08:44:10;;;;;;;0.60;0.60;;;3.30;99.90;;;;;;5285139;28;19978;-74
2021/12/03 08:46:46;;;;;;;0.80;0.80;;;3.30;99.90;;;;;;5264107;28;20031;-76
2021/12/03 08:49:29;;;;;;;0.50;0.50;;;3.20;99.90;;;;;;5281969;28;20274;-75
2021/12/03 08:54:54;;;;;;;0.60;0.60;;;3.20;99.90;;;;;;5283240;28;20488;-75
2021/12/03 08:57:31;;;;;;;0.40;0.40;;;3.20;99.90;;;;;;5284838;28;20173;-75
2021/12/03 09:00:16;;;;;;;1.20;1.20;;;3.30;99.90;;;;;;5265893;28;20072;-75
2021/12/03 09:02:48;;;;;;;0.75;0.75;;;3.20;99.90;;;;;;5304000;28;20046;-74
2021/12/03 09:05:19;;;;;;;0.50;0.50;;;3.20;99.90;;;;;;5303641;28;20039;-74
2021/12/03 09:07:50;;;;;;;1.67;1.58;;;3.20;99.90;;;;;;5286970;28;20108;-75
2021/12/03 09:10:22;;;;;;;0.65;0.65;;;3.10;99.90;;;;;;5283267;28;20333;-75
2021/12/03 09:12:58;;;;;;;0.50;0.50;;;3.20;99.90;;;;;;5284494;28;20103;-75
2021/12/03 09:15:36;;;;;;;0.60;0.60;;;3.00;99.90;;;;;;5287738;28;20038;-75
2021/12/03 09:20:57;;;;;;;0.40;0.40;;;2.90;99.90;;;;;;5300078;28;20040;-74
2021/12/03 09:23:37;;;;;;;1.27;1.27;;;2.80;99.90;;;;;;5282463;28;20444;-74
2021/12/03 09:26:10;;;;;;;0.32;0.32;;;2.90;99.90;;;;;;5291029;27;20270;-75
2021/12/03 09:28:51;;;;;;;0.80;0.80;;;2.80;99.90;;;;;;5291789;27;20054;-74
2021/12/03 09:31:22;;;;;;;0.60;0.60;;;2.90;99.90;;;;;;5268100;28;20375;-75
2021/12/03 09:33:59;;;;;;;0.60;0.60;;;3.00;99.90;;;;;;5285660;27;20030;-76
2021/12/03 09:36:33;;;;;;;0.60;0.60;;;3.10;99.90;;;;;;5272839;28;20039;-77
2021/12/03 09:39:10;;;;;;;0.47;0.47;;;3.20;99.90;;;;;;5302851;27;20069;-75
2021/12/03 09:41:41;;;;;;;0.90;0.90;;;3.30;99.90;;;;;;5264395;28;20238;-75
2021/12/03 09:44:12;;;;;;;0.52;0.52;;;3.50;99.90;;;;;;5263563;28;20036;-74
2021/12/03 09:46:46;;;;;;;0.70;0.70;;;3.70;99.90;;;;;;5265511;28;20050;-75
2021/12/03 09:49:26;;;;;;;0.50;0.50;;;4.00;99.90;;;;;;5248217;28;20278;-74
2021/12/03 09:52:24;;;;;;;0.73;0.73;;;4.20;99.90;;;;;;5263012;28;20018;-77
2021/12/03 09:54:56;;;;;;;0.80;0.80;;;4.50;99.90;;;;;;5263929;28;20036;-77
2021/12/03 09:57:41;;;;;;;1.42;1.40;;;4.90;99.90;;;;;;5264216;28;20367;-76
2021/12/03 10:12:17;;;;;;;0.93;0.93;;;4.70;99.90;;;;;;5265677;28;20024;-77
2021/12/03 10:20:23;;;;;;;0.50;0.50;;;5.30;99.90;;;;;;5264186;28;20369;-77
2021/12/03 10:38:13;;;;;;;1.25;1.25;;;6.40;99.90;;;;;;5257610;28;20044;-75
2021/12/03 10:43:46;;;;;;;0.88;0.88;;;6.70;99.90;;;;;;5263548;28;20082;-75
2021/12/03 10:46:26;;;;;;;0.80;0.80;;;6.90;99.90;;;;;;5264447;28;20035;-76
2021/12/03 10:49:39;;;;;;;0.73;0.73;;;7.30;99.90;;;;;;5244562;28;20034;-75
2021/12/03 10:55:19;;;;;;;0.40;0.40;;;7.20;99.90;;;;;;5249157;28;20023;-76
2021/12/03 10:58:40;;;;;;;0.60;0.60;;;7.10;99.90;;;;;;5240858;28;20020;-76
2021/12/03 11:47:27;;;;;;;2.20;2.10;;;8.70;99.90;;;;;;5262674;28;20452;-75
2021/12/03 12:06:32;;;;;;;0.60;0.60;;;8.10;99.90;;;;;;5239815;28;20082;-75
2021/12/03 12:12:54;;;;;;;0.90;0.90;;;7.20;99.90;;;;;;5220327;28;20226;-75
2021/12/03 12:29:42;;;;;;;0.50;0.50;;;6.20;99.90;;;;;;5220119;28;20049;-74
2021/12/03 13:09:31;;;;;;;0.50;0.50;;;5.50;99.90;;;;;;5287845;28;20109;-75
2021/12/03 13:13:20;;;;;;;0.95;0.95;;;5.00;99.90;;;;;;5286148;28;20047;-75
2021/12/03 14:38:48;;;;;;;0.60;0.60;;;3.70;99.90;;;;;;5247787;28;20326;-76
2021/12/03 14:44:19;;;;;;;0.60;0.60;;;3.70;99.90;;;;;;5265282;28;20046;-75
2021/12/03 14:55:51;;;;;;;0.60;0.60;;;3.50;99.90;;;;;;5242387;28;20024;-76
2021/12/03 14:58:29;;;;;;;0.73;0.73;;;3.50;99.90;;;;;;5257059;28;20051;-78
2021/12/03 15:01:21;;;;;;;0.50;0.50;;;3.50;99.90;;;;;;5264667;28;20035;-75
2021/12/03 15:04:35;;;;;;;0.50;0.50;;;3.50;99.90;;;;;;5262937;28;20319;-75
2021/12/03 15:09:40;;;;;;;0.55;0.55;;;3.50;99.90;;;;;;5266453;28;20035;-76
2021/12/03 15:23:08;;;;;;;0.75;0.75;;;3.10;99.90;;;;;;5261906;28;20059;-75
2021/12/03 15:31:15;;;;;;;0.68;0.68;;;2.70;99.90;;;;;;5265613;28;20090;-75
2021/12/03 15:33:53;;;;;;;0.50;0.50;;;2.60;99.90;;;;;;5265697;28;20087;-75
2021/12/03 15:36:40;;;;;;;0.60;0.60;;;2.50;99.90;;;;;;5263459;28;20046;-76
2021/12/03 16:03:29;;;;;;;0.55;0.55;;;2.00;99.90;;;;;;5260082;28;20035;-76
2021/12/03 16:04:21;;;;;;;0.55;0.55;;;1.90;99.90;;;;;;5262528;28;20067;-75
2021/12/03 16:07:04;;;;;;;0.43;0.43;;;1.90;99.90;;;;;;5268998;28;20479;-76
2021/12/03 16:10:27;;;;;;;0.55;0.55;;;1.80;99.90;;;;;;5239220;28;20056;-76
2021/12/03 16:53:43;;;;;;;1.33;1.33;;;1.30;99.90;;;;;;5303787;28;20046;-77
2021/12/03 16:56:18;;;;;;;0.63;0.63;;;1.40;99.90;;;;;;5286666;28;20626;-78
2021/12/03 16:58:49;;;;;;;0.50;0.50;;;1.30;99.90;;;;;;5268581;27;20034;-76
2021/12/03 17:04:04;;;;;;;0.35;0.35;;;1.20;99.90;;;;;;5284481;27;20030;-78
2021/12/03 17:48:45;;;;;;;0.60;0.60;;;1.20;99.90;;;;;;5304546;27;20025;-75
2021/12/03 17:56:44;;;;;;;0.35;0.35;;;1.10;99.90;;;;;;5306608;27;20031;-76
2021/12/03 17:59:40;;;;;;;0.50;0.50;;;0.90;99.90;;;;;;5306061;27;20023;-76
2021/12/03 18:05:04;;;;;;;0.85;0.85;;;0.70;99.90;;;;;;5304585;27;20039;-77
2021/12/03 18:10:54;;;;;;;0.90;0.90;;;0.60;99.90;;;;;;5293767;27;20035;-77
2021/12/03 18:57:12;;;;;;;0.32;0.32;;;0.00;99.90;;;;;;5247128;28;20035;-76
2021/12/03 18:59:56;;;;;;;0.70;0.70;;;0.00;99.90;;;;;;5254505;27;20023;-77
2021/12/03 19:02:28;;;;;;;;;;;-0.10;99.90;;;;;;5300627;27;20298;-79
2021/12/03 19:05:10;;;;;;;0.47;0.47;;;-0.20;99.90;;;;;;5284756;27;19907;-77
2021/12/03 19:10:18;;;;;;;0.60;0.60;;;-0.20;99.90;;;;;;5319375;27;20633;-77
2021/12/03 19:12:57;;;;;;;0.50;0.50;;;-0.30;99.90;;;;;;5285239;27;20098;-77
2021/12/03 19:15:31;;;;;;;0.50;0.50;;;-0.30;99.90;;;;;;5296994;27;20034;-80
2021/12/03 19:18:03;;;;;;;0.60;0.60;;;-0.30;99.90;;;;;;5279685;27;20529;-80
2021/12/03 19:20:38;;;;;;;0.50;0.50;;;-0.30;99.90;;;;;;5304530;27;20045;-78
2021/12/03 19:23:11;;;;;;;0.73;0.73;;;-0.30;99.90;;;;;;5266832;28;20044;-78
2021/12/03 19:25:47;;;;;;;0.40;0.40;;;-0.20;99.90;;;;;;5283753;28;20032;-78
2021/12/03 19:28:19;;;;;;;0.30;0.30;;;-0.20;99.90;;;;;;5296884;27;20035;-79
2021/12/03 19:30:49;;;;;;;0.50;0.50;;;-0.30;99.90;;;;;;5301923;27;20190;-78
2021/12/03 19:33:20;;;;;;;0.40;0.40;;;-0.40;99.90;;;;;;5304874;27;20103;-77
2021/12/03 19:35:52;;;;;;;0.40;0.40;;;-0.40;99.90;;;;;;5284140;27;20035;-77
2021/12/03 19:38:26;;;;;;;0.40;0.40;;;-0.50;99.90;;;;;;5298541;27;20031;-77
2021/12/03 19:40:59;;;;;;;0.70;0.70;;;-0.60;99.90;;;;;;5249991;28;20528;-77
2021/12/03 19:43:40;;;;;;;0.70;0.70;;;-0.60;99.90;;;;;;5251619;28;20697;-77
2021/12/03 19:46:17;;;;;;;1.53;1.43;;;-0.60;99.90;;;;;;5246084;28;20258;-76
2021/12/03 19:51:50;;;;;;;0.98;0.98;;;-0.60;99.90;;;;;;5254218;28;20073;-75
2021/12/03 19:54:22;;;;;;;1.77;1.67;;;-0.50;99.90;;;;;;5258598;28;20376;-75
2021/12/03 19:56:56;;;;;;;0.40;0.40;;;-0.60;99.90;;;;;;5252263;28;20091;-75
2021/12/03 19:59:27;;;;;;;0.77;0.77;;;-0.60;99.90;;;;;;5257553;28;20386;-76
2021/12/03 20:01:59;;;;;;;1.05;1.05;;;-0.50;99.90;;;;;;5248808;28;20039;-75
2021/12/03 20:04:33;;;;;;;0.50;0.50;;;-0.50;99.90;;;;;;5273944;28;20040;-76
2021/12/03 20:07:07;;;;;;;0.55;0.55;;;-0.50;99.90;;;;;;5262988;28;20039;-76
2021/12/03 20:09:47;;;;;;;0.60;0.60;;;-0.50;99.90;;;;;;5253731;28;20091;-75
2021/12/03 20:12:39;;;;;;;0.50;0.50;;;-0.50;99.90;;;;;;5232277;28;20020;-75
2021/12/03 20:15:35;;;;;;;0.40;0.40;;;-0.50;99.90;;;;;;5234717;28;20473;-76
2021/12/03 20:21:06;;;;;;;0.40;0.40;;;-0.50;99.90;;;;;;5263765;28;20537;-77
2021/12/03 20:29:16;;;;;;;0.40;0.40;;;-0.60;99.90;;;;;;5250076;28;20031;-76
2021/12/03 20:32:22;;;;;;;0.50;0.50;;;-0.60;99.90;;;;;;5240190;28;20446;-75
2021/12/03 20:37:46;;;;;;;0.50;0.50;;;-0.60;99.90;;;;;;5258100;28;20135;-74
2021/12/03 20:40:30;;;;;;;0.30;0.30;;;-0.60;99.90;;;;;;5260260;28;20031;-73
2021/12/03 20:43:27;;;;;;;0.60;0.60;;;-0.70;99.90;;;;;;5261453;28;20174;-73
2021/12/03 21:08:34;;;;;;;0.50;0.50;;;-1.00;99.90;;;;;;5258094;28;20052;-73
2021/12/03 21:11:16;;;;;;;0.40;0.40;;;-1.10;99.90;;;;;;5260545;28;20138;-74
2021/12/03 21:13:49;;;;;;;0.40;0.40;;;-1.10;99.90;;;;;;5256731;28;20639;-72
2021/12/03 21:19:18;;;;;;;0.50;0.50;;;-1.30;99.90;;;;;;5257280;28;20036;-73
2021/12/03 21:21:56;;;;;;;0.52;0.52;;;-1.30;99.90;;;;;;5263091;28;20400;-73
2021/12/03 21:24:36;;;;;;;1.48;1.48;;;-1.30;99.90;;;;;;5258547;28;20044;-72
2021/12/03 21:27:19;;;;;;;0.40;0.40;;;-1.40;99.90;;;;;;5238342;28;20031;-73
2021/12/03 21:30:11;;;;;;;0.50;0.50;;;-1.40;99.90;;;;;;5261606;28;20046;-74
2021/12/03 21:38:45;;;;;;;0.50;0.50;;;-1.50;99.90;;;;;;5260662;28;20032;-73
2021/12/03 21:43:42;;;;;;;0.93;0.93;;;-1.60;99.90;;;;;;5253230;28;20024;-72
2021/12/03 21:46:15;;;;;;;0.40;0.40;;;-1.70;99.90;;;;;;5263979;28;20313;-73
2021/12/03 21:48:49;;;;;;;0.50;0.50;;;-1.80;99.90;;;;;;5240840;28;20054;-72